createdAt,value
2018-01-13T00:01:24.311Z,77.10
2018-01-13T00:03:53.503Z,70.20
2018-01-13T00:06:22.698Z,68.93
2018-01-13T00:08:52.006Z,65.13
2018-01-13T00:11:21.201Z,73.10
2018-01-13T00:13:50.389Z,79.20
2018-01-13T00:16:19.809Z,69.43
2018-01-13T00:18:48.262Z,99.83
2018-01-13T00:21:16.709Z,65.60
2018-01-13T00:23:45.186Z,78.07
2018-01-13T00:26:13.643Z,78.77
2018-01-13T00:28:42.842Z,84.57
2018-01-13T00:31:11.327Z,80.80
2018-01-13T00:33:39.842Z,78.20
2018-01-13T00:36:08.684Z,71.23
2018-01-13T00:38:38.188Z,101.03
2018-01-13T00:41:06.620Z,82.67
2018-01-13T00:43:35.083Z,83.73
2018-01-13T00:46:03.622Z,95.97
2018-01-13T00:48:32.091Z,79.70
2018-01-13T00:51:01.285Z,79.50
2018-01-13T00:53:30.530Z,86.13
2018-01-13T00:55:59.188Z,74.90
2018-01-13T00:58:27.744Z,85.43
2018-01-13T01:00:56.984Z,78.80
2018-01-13T01:03:25.412Z,96.27
2018-01-13T01:05:53.839Z,73.43
2018-01-13T01:08:22.450Z,99.30
2018-01-13T01:10:50.909Z,79.10
2018-01-13T01:13:19.335Z,78.03
2018-01-13T01:15:47.877Z,78.30
2018-01-13T01:18:16.313Z,84.87
2018-01-13T01:20:45.509Z,80.93
2018-01-13T01:23:14.840Z,87.63
2018-01-13T01:25:43.277Z,83.73
2018-01-13T01:28:11.700Z,85.20
2018-01-13T01:30:40.205Z,83.83
2018-01-13T01:33:08.627Z,78.40
2018-01-13T01:35:37.095Z,82.40
2018-01-13T01:38:05.933Z,78.07
2018-01-13T01:40:34.363Z,94.50
2018-01-13T01:43:02.795Z,84.90
2018-01-13T01:45:31.377Z,77.00
2018-01-13T01:47:59.911Z,66.83
2018-01-13T01:50:28.358Z,63.70
2018-01-13T01:52:56.834Z,72.23
2018-01-13T01:55:25.256Z,76.87
2018-01-13T01:57:53.695Z,58.37
2018-01-13T02:00:22.315Z,68.67
2018-01-13T02:02:50.751Z,58.80
2018-01-13T02:05:19.171Z,57.70
2018-01-13T02:07:47.677Z,55.77
2018-01-13T02:10:16.873Z,54.63
2018-01-13T02:12:46.240Z,50.37
2018-01-13T02:15:14.705Z,54.67
2018-01-13T02:17:43.122Z,51.00
2018-01-13T02:20:11.602Z,55.10
2018-01-13T02:22:40.073Z,52.70
2018-01-13T02:25:08.525Z,54.53
2018-01-13T02:27:36.943Z,58.13
2018-01-13T02:30:05.576Z,45.03
2018-01-13T02:32:34.028Z,52.30
2018-01-13T02:35:03.242Z,50.90
2018-01-13T02:37:31.877Z,52.17
2018-01-13T02:40:00.587Z,56.40
2018-01-13T02:42:29.010Z,57.70
2018-01-13T02:44:57.665Z,45.57
2018-01-13T02:47:26.851Z,45.73
2018-01-13T02:49:55.361Z,49.37
2018-01-13T02:52:23.945Z,47.93
2018-01-13T02:54:52.389Z,58.70
2018-01-13T02:57:20.828Z,52.93
2018-01-13T02:59:49.304Z,50.23
2018-01-13T03:02:17.937Z,57.03
2018-01-13T03:04:46.370Z,47.90
2018-01-13T03:07:14.848Z,56.67
2018-01-13T03:09:43.280Z,62.33
2018-01-13T03:12:11.712Z,50.47
2018-01-13T03:14:40.295Z,54.87
2018-01-13T03:17:08.806Z,56.17
2018-01-13T03:19:37.266Z,42.77
2018-01-13T03:22:06.019Z,46.70
2018-01-13T03:24:35.229Z,42.97
2018-01-13T03:27:03.831Z,38.03
2018-01-13T03:29:32.296Z,51.13
2018-01-13T03:32:00.730Z,42.10
2018-01-13T03:34:29.211Z,41.30
2018-01-13T03:36:58.454Z,43.50
2018-01-13T03:39:26.906Z,39.17
2018-01-13T03:41:56.257Z,48.47
2018-01-13T03:44:24.853Z,49.40
2018-01-13T03:46:54.058Z,47.90
2018-01-13T03:49:22.484Z,47.70
2018-01-13T03:51:52.125Z,50.23
2018-01-13T03:54:20.559Z,43.47
2018-01-13T03:56:49.753Z,52.47
2018-01-13T03:59:18.285Z,49.43
2018-01-13T04:01:46.725Z,49.87
2018-01-13T04:04:15.948Z,51.47
2018-01-13T04:06:44.502Z,54.67
2018-01-13T04:09:13.703Z,58.53
2018-01-13T04:11:42.900Z,56.03
2018-01-13T04:14:12.214Z,56.53
2018-01-13T04:16:41.504Z,70.27
2018-01-13T04:19:10.703Z,75.37
2018-01-13T04:21:40.022Z,64.13
2018-01-13T04:24:08.433Z,70.13
2018-01-13T04:26:37.749Z,79.83
2018-01-13T04:29:06.478Z,74.73
2018-01-13T04:31:34.898Z,62.93
2018-01-13T04:34:03.326Z,67.07
2018-01-13T04:36:32.582Z,69.57
2018-01-13T04:39:01.030Z,69.47
2018-01-13T04:41:29.822Z,79.10
2018-01-13T04:43:58.575Z,62.57
2018-01-13T04:46:27.788Z,68.13
2018-01-13T04:48:56.970Z,76.20
2018-01-13T04:51:26.283Z,58.87
2018-01-13T04:53:55.595Z,67.43
2018-01-13T04:56:24.020Z,67.90
2018-01-13T04:58:52.491Z,63.60
2018-01-13T05:01:20.926Z,69.40
2018-01-13T05:03:50.243Z,65.83
2018-01-13T05:06:18.767Z,57.00
2018-01-13T05:08:47.158Z,66.47
2018-01-13T05:11:16.608Z,72.93
2018-01-13T05:13:45.220Z,72.30
2018-01-13T05:16:13.644Z,71.80
2018-01-13T05:18:42.864Z,76.70
2018-01-13T05:21:11.539Z,63.20
2018-01-13T05:23:40.728Z,67.00
2018-01-13T05:26:09.908Z,76.80
2018-01-13T05:28:38.621Z,63.90
2018-01-13T05:31:07.304Z,75.70
2018-01-13T05:33:36.505Z,68.53
2018-01-13T05:36:05.078Z,70.87
2018-01-13T05:38:34.294Z,81.90
2018-01-13T05:41:02.724Z,60.13
2018-01-13T05:43:31.422Z,72.17
2018-01-13T05:46:00.021Z,76.07
2018-01-13T05:48:29.253Z,55.73
2018-01-13T05:50:57.791Z,70.83
2018-01-13T05:53:26.237Z,73.10
2018-01-13T05:55:54.680Z,66.40
2018-01-13T05:58:23.112Z,65.70
2018-01-13T06:00:51.527Z,68.67
2018-01-13T06:03:20.685Z,70.83
2018-01-13T06:05:49.106Z,57.70
2018-01-13T06:08:17.513Z,69.13
2018-01-13T06:10:45.896Z,65.40
2018-01-13T06:13:14.535Z,53.87
2018-01-13T06:15:42.988Z,46.53
2018-01-13T06:18:11.364Z,58.60
2018-01-13T06:20:40.882Z,56.27
2018-01-13T06:23:10.146Z,48.23
2018-01-13T06:25:38.518Z,49.60
2018-01-13T06:28:07.026Z,39.23
2018-01-13T06:30:35.408Z,50.80
2018-01-13T06:33:03.830Z,45.40
2018-01-13T06:35:33.015Z,48.10
2018-01-13T06:38:02.170Z,40.13
2018-01-13T06:40:30.569Z,38.90
2018-01-13T06:42:58.994Z,50.83
2018-01-13T06:45:27.433Z,56.73
2018-01-13T06:47:56.066Z,46.50
2018-01-13T06:50:24.966Z,48.97
2018-01-13T06:52:53.349Z,46.53
2018-01-13T06:55:21.715Z,38.20
2018-01-13T06:57:50.171Z,39.93
2018-01-13T07:00:19.319Z,43.10
2018-01-13T07:02:47.694Z,37.07
2018-01-13T07:05:16.106Z,41.20
2018-01-13T07:07:44.509Z,31.93
2018-01-13T07:10:13.740Z,45.50
2018-01-13T07:12:42.254Z,35.23
2018-01-13T07:15:10.629Z,42.57
2018-01-13T07:17:39.040Z,43.60
2018-01-13T07:20:08.227Z,51.57
2018-01-13T07:22:36.632Z,51.57
2018-01-13T07:25:05.776Z,49.33
2018-01-13T07:27:34.497Z,49.90
2018-01-13T07:30:02.881Z,45.27
2018-01-13T07:32:32.037Z,42.53
2018-01-13T07:35:00.623Z,48.50
2018-01-13T07:37:29.005Z,41.30
2018-01-13T07:39:57.408Z,59.87
2018-01-13T07:42:26.040Z,48.77
2018-01-13T07:44:54.422Z,58.27
2018-01-13T07:47:22.884Z,52.60
2018-01-13T07:49:51.732Z,56.57
2018-01-13T07:52:20.207Z,48.77
2018-01-13T07:54:48.592Z,51.27
2018-01-13T07:57:17.109Z,49.83
2018-01-13T07:59:46.314Z,53.70
2018-01-13T08:02:14.737Z,52.13
2018-01-13T08:04:43.274Z,43.53
2018-01-13T08:07:11.758Z,57.17
2018-01-13T08:09:40.174Z,49.07
2018-01-13T08:12:08.611Z,46.33
2018-01-13T08:14:36.993Z,50.57
2018-01-13T08:17:05.408Z,49.00
2018-01-13T08:19:34.220Z,40.90
2018-01-13T08:22:02.605Z,41.07
2018-01-13T08:24:31.030Z,40.73
2018-01-13T08:26:59.554Z,41.20
2018-01-13T08:29:27.959Z,40.03
2018-01-13T08:31:57.101Z,44.07
2018-01-13T08:34:25.645Z,45.70
2018-01-13T08:36:54.836Z,43.70
2018-01-13T08:39:24.000Z,42.60
2018-01-13T08:41:53.536Z,49.30
2018-01-13T08:44:22.670Z,51.00
2018-01-13T08:46:51.060Z,46.50
2018-01-13T08:49:19.992Z,44.43
2018-01-13T08:51:48.539Z,46.80
2018-01-13T08:54:17.037Z,45.00
2018-01-13T08:56:45.620Z,46.67
2018-01-13T08:59:14.027Z,47.73
2018-01-13T09:01:48.515Z,55.63
2018-01-13T09:04:16.940Z,58.00
2018-01-13T09:06:46.124Z,43.30
2018-01-13T09:09:15.398Z,47.70
2018-01-13T09:11:44.605Z,47.90
2018-01-13T09:14:13.018Z,51.47
2018-01-13T09:16:42.197Z,63.70
2018-01-13T09:19:10.643Z,46.27
2018-01-13T09:21:39.025Z,47.90
2018-01-13T09:24:08.671Z,52.90
2018-01-13T09:26:37.813Z,43.43
2018-01-13T09:29:06.215Z,48.37
2018-01-13T09:31:34.728Z,46.10
2018-01-13T09:34:04.040Z,37.30
2018-01-13T09:36:33.386Z,46.93
2018-01-13T09:39:01.881Z,49.73
2018-01-13T09:41:30.288Z,57.87
2018-01-13T09:43:58.744Z,49.60
2018-01-13T09:46:27.317Z,46.93
2018-01-13T09:48:55.719Z,49.33
2018-01-13T09:51:24.098Z,49.23
2018-01-13T09:53:52.897Z,54.70
2018-01-13T09:56:22.051Z,47.70
2018-01-13T09:58:50.478Z,44.27
2018-01-13T10:01:19.806Z,45.93
2018-01-13T10:03:48.190Z,53.03
2018-01-13T10:06:16.591Z,56.93
2018-01-13T10:08:45.293Z,52.53
2018-01-13T10:11:13.688Z,44.33
2018-01-13T10:13:42.142Z,51.43
2018-01-13T10:16:11.012Z,54.70
2018-01-13T10:18:39.435Z,48.30
2018-01-13T10:21:07.865Z,50.70
2018-01-13T10:23:36.504Z,47.77
2018-01-13T10:26:04.927Z,54.50
2018-01-13T10:28:33.326Z,46.30
2018-01-13T10:31:01.852Z,52.67
2018-01-13T10:33:31.021Z,50.53
2018-01-13T10:35:59.421Z,52.37
2018-01-13T10:38:28.067Z,45.83
2018-01-13T10:40:56.463Z,47.93
2018-01-13T10:43:24.962Z,51.37
2018-01-13T10:45:53.643Z,54.20
2018-01-13T10:48:22.031Z,52.30
2018-01-13T10:50:50.428Z,45.03
2018-01-13T10:53:19.619Z,23.80
2018-01-13T10:55:48.998Z,51.07
2018-01-13T10:58:17.384Z,54.70
2018-01-13T11:00:45.834Z,53.90
2018-01-13T11:03:14.234Z,50.27
2018-01-13T11:05:42.650Z,44.30
2018-01-13T11:08:11.912Z,42.33
2018-01-13T11:10:40.333Z,54.80
2018-01-13T11:13:08.721Z,43.83
2018-01-13T11:15:37.209Z,44.53
2018-01-13T11:18:05.592Z,45.07
2018-01-13T11:20:33.981Z,41.33
2018-01-13T11:23:02.641Z,40.63
2018-01-13T11:25:31.014Z,42.93
2018-01-13T11:28:00.173Z,45.90
2018-01-13T11:30:28.779Z,45.17
2018-01-13T11:32:57.933Z,46.03
2018-01-13T11:35:26.355Z,47.03
2018-01-13T11:37:55.638Z,46.93
2018-01-13T11:40:24.137Z,44.83
2018-01-13T11:42:53.287Z,39.13
2018-01-13T11:45:21.727Z,52.57
2018-01-13T11:47:50.887Z,40.80
2018-01-13T11:50:19.300Z,39.00
2018-01-13T11:52:48.806Z,44.23
2018-01-13T11:55:17.959Z,36.10
2018-01-13T11:57:46.727Z,34.23
2018-01-13T12:00:15.139Z,41.10
2018-01-13T12:02:43.536Z,36.33
2018-01-13T12:05:13.269Z,36.83
2018-01-13T12:07:41.802Z,33.10
2018-01-13T12:10:10.183Z,30.70
2018-01-13T12:12:38.573Z,44.90
2018-01-13T12:15:07.153Z,34.63
2018-01-13T12:17:35.818Z,28.03
2018-01-13T12:20:04.240Z,31.57
2018-01-13T12:22:32.855Z,33.93
2018-01-13T12:25:01.258Z,32.47
2018-01-13T12:27:29.654Z,33.13
2018-01-13T12:29:58.378Z,33.40
2018-01-13T12:32:27.544Z,36.90
2018-01-13T12:34:55.930Z,31.70
2018-01-13T12:37:25.841Z,29.03
2018-01-13T12:39:54.652Z,37.63
2018-01-13T12:42:24.120Z,35.80
2018-01-13T12:44:52.843Z,30.50
2018-01-13T12:47:21.255Z,31.20
2018-01-13T12:49:49.660Z,35.10
2018-01-13T12:52:18.144Z,41.57
2018-01-13T12:54:46.555Z,29.33
2018-01-13T12:57:15.703Z,35.57
2018-01-13T12:59:44.612Z,39.73
2018-01-13T13:02:13.008Z,33.73
2018-01-13T13:04:41.387Z,31.47
2018-01-13T13:07:09.851Z,36.83
2018-01-13T13:09:38.239Z,31.83
2018-01-13T13:12:06.631Z,32.40
2018-01-13T13:14:36.043Z,32.93
2018-01-13T13:17:05.186Z,32.37
2018-01-13T13:19:33.650Z,28.33
2018-01-13T13:22:02.299Z,32.87
2018-01-13T13:24:31.450Z,33.37
2018-01-13T13:26:59.850Z,29.60
2018-01-13T13:29:28.456Z,27.70
2018-01-13T13:31:56.862Z,26.70
2018-01-13T13:34:25.253Z,28.03
2018-01-13T13:36:53.692Z,28.87
2018-01-13T13:39:22.107Z,24.73
2018-01-13T13:41:50.528Z,28.73
2018-01-13T13:44:19.154Z,20.17
2018-01-13T13:46:48.297Z,22.60
2018-01-13T13:49:16.685Z,28.70
2018-01-13T13:51:45.714Z,16.87
2018-01-13T13:54:14.912Z,26.00
2018-01-13T13:56:44.109Z,24.30
2018-01-13T13:59:13.437Z,34.93
2018-01-13T14:01:43.169Z,28.07
2018-01-13T14:04:11.548Z,24.77
2018-01-13T14:06:40.061Z,34.13
2018-01-13T14:09:08.465Z,33.00
2018-01-13T14:11:37.623Z,28.77
2018-01-13T14:14:06.233Z,35.60
2018-01-13T14:16:35.405Z,32.13
2018-01-13T14:19:03.795Z,35.70
2018-01-13T14:21:32.380Z,28.57
2018-01-13T14:24:00.776Z,30.50
2018-01-13T14:26:29.931Z,31.93
2018-01-13T14:28:58.343Z,28.00
2018-01-13T14:31:26.748Z,33.53
2018-01-13T14:33:55.188Z,28.93
2018-01-13T14:36:23.868Z,25.30
2018-01-13T14:38:52.256Z,31.70
2018-01-13T14:41:20.655Z,24.67
2018-01-13T14:43:49.108Z,31.30
2018-01-13T14:46:18.524Z,31.00
2018-01-13T14:48:46.909Z,27.77
2018-01-13T14:51:15.481Z,26.70
2018-01-13T14:53:44.841Z,27.97
2018-01-13T14:56:13.258Z,27.47
2018-01-13T14:58:41.793Z,35.40
2018-01-13T15:01:10.171Z,26.83
2018-01-13T15:03:38.888Z,28.70
2018-01-13T15:06:08.108Z,30.37
2018-01-13T15:08:36.493Z,25.60
2018-01-13T15:11:04.909Z,26.53
2018-01-13T15:13:33.428Z,28.53
2018-01-13T15:16:02.597Z,31.00
2018-01-13T15:18:31.018Z,36.13
2018-01-13T15:21:00.034Z,38.10
2018-01-13T15:23:29.253Z,34.00
2018-01-13T15:25:57.638Z,36.07
2018-01-13T15:28:26.428Z,33.80
2018-01-13T15:30:54.816Z,38.80
2018-01-13T15:33:23.205Z,36.77
2018-01-13T15:35:52.128Z,36.87
2018-01-13T15:38:20.533Z,35.17
2018-01-13T15:40:50.631Z,34.50
2018-01-13T15:43:19.222Z,37.67
2018-01-13T15:45:47.611Z,37.83
2018-01-13T15:48:17.121Z,39.60
2018-01-13T15:50:46.377Z,38.53
2018-01-13T15:53:14.791Z,34.10
2018-01-13T15:55:43.167Z,40.73
2018-01-13T15:58:11.899Z,35.50
2018-01-13T16:00:40.321Z,40.13
2018-01-13T16:03:08.745Z,38.40
2018-01-13T16:05:37.725Z,33.63
2018-01-13T16:08:06.933Z,33.80
2018-01-13T16:10:35.390Z,31.87
2018-01-13T16:13:03.974Z,32.27
2018-01-13T16:15:33.121Z,43.60
2018-01-13T16:18:01.500Z,38.60
2018-01-13T16:20:30.028Z,37.53
2018-01-13T16:22:58.416Z,44.13
2018-01-13T16:25:27.657Z,30.47
2018-01-13T16:27:56.080Z,39.93
2018-01-13T16:30:24.479Z,38.60
2018-01-13T16:32:52.888Z,22.93
2018-01-13T16:35:21.477Z,33.30
2018-01-13T16:37:49.916Z,39.03
2018-01-13T16:40:19.055Z,47.00
2018-01-13T16:42:47.694Z,37.50
2018-01-13T16:45:16.842Z,37.57
2018-01-13T16:47:45.211Z,32.83
2018-01-13T16:50:13.932Z,40.90
2018-01-13T16:52:42.331Z,41.37
2018-01-13T16:55:10.716Z,42.83
2018-01-13T16:57:39.248Z,35.57
2018-01-13T17:00:07.629Z,41.03
2018-01-13T17:02:36.035Z,35.73
2018-01-13T17:05:04.504Z,42.87
2018-01-13T17:07:33.074Z,40.27
2018-01-13T17:10:02.642Z,40.23
2018-01-13T17:12:31.156Z,42.10
2018-01-13T17:14:59.575Z,54.33
2018-01-13T17:17:27.972Z,35.77
2018-01-13T17:19:57.235Z,44.40
2018-01-13T17:22:25.653Z,39.60
2018-01-13T17:24:54.807Z,44.03
2018-01-13T17:27:23.287Z,48.40
2018-01-13T17:29:51.661Z,40.27
2018-01-13T17:32:20.038Z,48.47
2018-01-13T17:34:48.567Z,42.90
2018-01-13T17:37:17.757Z,43.40
2018-01-13T17:39:46.915Z,49.93
2018-01-13T17:42:15.914Z,51.43
2018-01-13T17:44:44.294Z,50.83
2018-01-13T17:47:12.717Z,43.37
2018-01-13T17:49:41.993Z,48.83
2018-01-13T17:52:10.551Z,54.20
2018-01-13T17:54:38.937Z,42.97
2018-01-13T17:57:07.644Z,45.10
2018-01-13T17:59:36.025Z,45.97
2018-01-13T18:02:04.439Z,44.83
2018-01-13T18:04:32.894Z,49.17
2018-01-13T18:07:02.738Z,56.60
2018-01-13T18:09:31.372Z,43.40
2018-01-13T18:11:59.782Z,43.17
2018-01-13T18:14:28.933Z,50.93
2018-01-13T18:16:57.327Z,53.43
2018-01-13T18:19:25.760Z,50.27
2018-01-13T18:21:54.143Z,47.00
2018-01-13T18:24:22.538Z,49.60
2018-01-13T18:26:52.580Z,61.03
2018-01-13T18:29:21.042Z,57.30
2018-01-13T18:31:50.266Z,53.50
2018-01-13T18:34:18.873Z,57.70
2018-01-13T18:36:48.095Z,52.20
2018-01-13T18:39:16.463Z,51.10
2018-01-13T18:41:44.937Z,52.33
2018-01-13T18:44:13.321Z,52.57
2018-01-13T18:46:41.730Z,60.60
2018-01-13T18:49:10.264Z,59.37
2018-01-13T18:51:39.423Z,52.80
2018-01-13T18:54:08.141Z,68.63
2018-01-13T18:56:37.331Z,61.60
2018-01-13T18:59:05.725Z,58.87
2018-01-13T19:01:34.914Z,55.63
2018-01-13T19:04:04.208Z,53.23
2018-01-13T19:06:32.612Z,63.93
2018-01-13T19:09:01.865Z,61.40
2018-01-13T19:11:30.708Z,54.23
2018-01-13T19:13:59.084Z,59.67
2018-01-13T19:16:27.479Z,53.67
2018-01-13T19:18:56.214Z,56.67
2018-01-13T19:21:24.589Z,63.07
2018-01-13T19:23:52.971Z,70.00
2018-01-13T19:26:21.384Z,61.97
2018-01-13T19:28:50.547Z,63.10
2018-01-13T19:31:19.056Z,67.13
2018-01-13T19:33:48.350Z,56.73
2018-01-13T19:36:17.517Z,54.73
2018-01-13T19:38:46.712Z,63.00
2018-01-13T19:41:15.244Z,49.47
2018-01-13T19:43:43.667Z,66.37
2018-01-13T19:46:12.090Z,59.87
2018-01-13T19:48:41.290Z,62.80
2018-01-13T19:51:10.553Z,71.60
2018-01-13T19:53:38.931Z,68.10
2018-01-13T19:56:07.745Z,67.30
2018-01-13T19:58:36.915Z,59.47
2018-01-13T20:01:05.297Z,65.77
2018-01-13T20:03:33.851Z,64.03
2018-01-13T20:06:02.238Z,65.40
2018-01-13T20:08:30.640Z,55.33
2018-01-13T20:10:59.439Z,69.50
2018-01-13T20:13:27.983Z,61.37
2018-01-13T20:15:56.384Z,59.70
2018-01-13T20:18:24.991Z,56.53
2018-01-13T20:20:54.161Z,63.17
2018-01-13T20:23:22.629Z,64.10
2018-01-13T20:25:51.124Z,64.07
2018-01-13T20:28:19.607Z,75.17
2018-01-13T20:30:47.987Z,61.93
2018-01-13T20:33:16.457Z,62.03
2018-01-13T20:35:44.848Z,59.50
2018-01-13T20:38:13.212Z,67.63
2018-01-13T20:40:41.907Z,62.70
2018-01-13T20:43:10.320Z,66.43
2018-01-13T20:45:39.519Z,74.40
2018-01-13T20:48:08.716Z,58.10
2018-01-13T20:50:37.878Z,47.53
2018-01-13T20:53:06.274Z,59.47
2018-01-13T20:55:34.864Z,57.40
2018-01-13T20:58:03.470Z,67.37
2018-01-13T21:00:32.673Z,62.23
2018-01-13T21:03:01.239Z,71.83
2018-01-13T21:05:30.402Z,69.73
2018-01-13T21:07:58.777Z,62.43
2018-01-13T21:10:27.389Z,71.23
2018-01-13T21:12:55.786Z,56.47
2018-01-13T21:15:25.435Z,68.73
2018-01-13T21:17:54.243Z,62.23
2018-01-13T21:20:22.615Z,51.17
2018-01-13T21:22:51.781Z,68.80
2018-01-13T21:25:20.203Z,60.27
2018-01-13T21:27:48.729Z,62.07
2018-01-13T21:30:18.107Z,60.27
2018-01-13T21:32:46.585Z,69.30
2018-01-13T21:35:15.032Z,48.77
2018-01-13T21:37:43.425Z,63.37
2018-01-13T21:40:11.972Z,62.03
2018-01-13T21:42:40.352Z,63.97
2018-01-13T21:45:08.731Z,62.70
2018-01-13T21:47:37.162Z,61.13
2018-01-13T21:50:05.541Z,58.13
2018-01-13T21:52:33.990Z,52.00
2018-01-13T21:55:02.549Z,62.97
2018-01-13T21:57:30.933Z,48.70
2018-01-13T21:59:59.383Z,50.67
2018-01-13T22:02:28.600Z,51.20
2018-01-13T22:04:56.980Z,47.30
2018-01-13T22:07:25.369Z,52.97
2018-01-13T22:09:54.002Z,55.87
2018-01-13T22:12:22.413Z,70.30
2018-01-13T22:14:51.547Z,56.33
2018-01-13T22:17:20.867Z,56.33
2018-01-13T22:19:49.258Z,58.30
2018-01-13T22:22:17.648Z,68.47
2018-01-13T22:24:46.167Z,62.77
2018-01-13T22:27:14.541Z,52.60
2018-01-13T22:29:42.929Z,59.43
2018-01-13T22:32:11.587Z,66.10
2018-01-13T22:34:40.745Z,69.90
2018-01-13T22:37:09.534Z,59.50
2018-01-13T22:39:38.080Z,68.77
2018-01-13T22:42:06.449Z,66.80
2018-01-13T22:44:34.828Z,67.67
2018-01-13T22:47:03.248Z,65.93
2018-01-13T22:49:31.644Z,73.20
2018-01-13T22:52:00.036Z,67.83
2018-01-13T22:54:29.232Z,67.80
2018-01-13T22:56:57.606Z,51.30
2018-01-13T22:59:25.989Z,68.23
2018-01-13T23:01:55.327Z,69.60
2018-01-13T23:04:23.728Z,68.00
2018-01-13T23:06:52.874Z,75.40
2018-01-13T23:09:22.138Z,62.47
2018-01-13T23:11:50.534Z,66.80
2018-01-13T23:14:18.944Z,68.73
2018-01-13T23:16:47.381Z,69.07
2018-01-13T23:19:16.410Z,72.40
2018-01-13T23:21:45.580Z,67.43
2018-01-13T23:24:14.279Z,68.17
2018-01-13T23:26:42.710Z,59.23
2018-01-13T23:29:11.093Z,65.97
2018-01-13T23:31:39.662Z,70.50
2018-01-13T23:34:08.077Z,78.00
2018-01-13T23:36:36.456Z,68.03
2018-01-13T23:39:05.474Z,77.53
2018-01-13T23:41:34.621Z,69.87
2018-01-13T23:44:03.017Z,73.70
2018-01-13T23:46:31.830Z,69.10
2018-01-13T23:49:00.204Z,67.07
2018-01-13T23:51:28.616Z,63.20
2018-01-13T23:53:57.128Z,61.80
2018-01-13T23:56:25.628Z,67.87
2018-01-13T23:58:53.999Z,54.90
